createdAt,value
2022-12-08T00:00:13.548Z,100219.44
2022-12-08T00:02:44.441Z,100216.25
2022-12-08T00:05:34.071Z,100215.28
2022-12-08T00:08:21.523Z,100213.28
2022-12-08T00:10:50.524Z,100210.28
2022-12-08T00:13:19.489Z,100210.47
2022-12-08T00:15:47.624Z,100212.28
2022-12-08T00:18:18.531Z,100204.09
2022-12-08T00:20:47.332Z,100205.06
2022-12-08T00:23:17.002Z,100205.31
2022-12-08T00:25:45.209Z,100203.84
2022-12-08T00:28:13.854Z,100202.13
2022-12-08T00:30:43.396Z,100200.56
2022-12-08T00:33:13.371Z,100196.13
2022-12-08T00:35:43.341Z,100190.63
2022-12-08T00:38:12.374Z,100190.19
2022-12-08T00:40:48.956Z,100185.69
2022-12-08T00:43:18.023Z,100191.66
2022-12-08T00:45:46.567Z,100179.97
2022-12-08T00:48:15.215Z,100179.97
2022-12-08T00:50:43.903Z,100180.22
2022-12-08T00:53:13.007Z,100181.50
2022-12-08T00:55:41.359Z,100181.75
2022-12-08T00:58:11.192Z,100173.03
2022-12-08T01:00:41.963Z,100171.81
2022-12-08T01:03:11.624Z,100169.06
2022-12-08T01:05:40.870Z,100166.88
2022-12-08T01:08:22.211Z,100166.88
2022-12-08T01:10:55.133Z,100155.66
2022-12-08T01:13:28.507Z,100157.38
2022-12-08T01:15:57.590Z,100161.88
2022-12-08T01:18:29.687Z,100164.63
2022-12-08T01:21:05.440Z,100158.66
2022-12-08T01:23:34.589Z,100155.25
2022-12-08T01:26:04.400Z,100153.75
2022-12-08T01:28:34.487Z,100157.94
2022-12-08T01:31:07.839Z,100155.19
2022-12-08T01:33:36.245Z,100154.97
2022-12-08T01:36:05.469Z,100150.75
2022-12-08T01:38:35.634Z,100145.75
2022-12-08T01:41:06.897Z,100155.97
2022-12-08T01:43:55.821Z,100148.56
2022-12-08T01:46:27.352Z,100156.03
2022-12-08T01:49:01.425Z,100147.81
2022-12-08T01:51:34.116Z,100150.06
2022-12-08T01:54:05.517Z,100146.09
2022-12-08T01:56:38.848Z,100142.91
2022-12-08T01:59:09.280Z,100133.94
2022-12-08T02:01:37.714Z,100142.34
2022-12-08T02:04:06.706Z,100141.41
2022-12-08T02:06:39.811Z,100138.97
2022-12-08T02:09:09.288Z,100136.91
2022-12-08T02:11:37.582Z,100134.72
2022-12-08T02:14:11.306Z,100132.75
2022-12-08T02:16:49.733Z,100127.03
2022-12-08T02:20:00.410Z,100125.53
2022-12-08T02:22:37.378Z,100126.25
2022-12-08T02:25:16.533Z,100127.03
2022-12-08T02:27:59.945Z,100119.25
2022-12-08T02:30:39.398Z,100125.47
2022-12-08T02:33:32.768Z,100116.53
2022-12-08T02:36:08.792Z,100120.09
2022-12-08T02:38:46.821Z,100111.06
2022-12-08T02:41:25.801Z,100115.13
2022-12-08T02:43:59.915Z,100111.66
2022-12-08T02:46:33.241Z,100107.16
2022-12-08T02:49:02.242Z,100104.44
2022-12-08T02:51:31.804Z,100113.91
2022-12-08T02:54:01.305Z,100111.41
2022-12-08T02:56:39.063Z,100110.41
2022-12-08T02:59:24.622Z,100107.69
2022-12-08T03:02:12.159Z,100101.72
2022-12-08T03:04:47.840Z,100102.75
2022-12-08T03:07:25.319Z,100103.22
2022-12-08T03:10:01.374Z,100096.75
2022-12-08T03:12:35.308Z,100098.28
2022-12-08T03:15:08.782Z,100089.84
2022-12-08T03:17:42.377Z,100097.47
2022-12-08T03:20:15.074Z,100093.28
2022-12-08T03:22:48.065Z,100096.84
2022-12-08T03:25:18.370Z,100092.16
2022-12-08T03:27:46.865Z,100091.91
2022-12-08T03:30:15.557Z,100086.19
2022-12-08T03:32:48.626Z,100075.97
2022-12-08T03:35:22.664Z,100077.94
2022-12-08T03:37:52.282Z,100069.97
2022-12-08T03:40:24.115Z,100066.47
2022-12-08T03:42:52.283Z,100062.34
2022-12-08T03:45:22.204Z,100062.84
2022-12-08T03:47:51.268Z,100058.34
2022-12-08T03:50:21.677Z,100059.84
2022-12-08T03:52:50.327Z,100057.34
2022-12-08T03:55:21.440Z,100064.84
2022-12-08T03:57:52.870Z,100059.13
2022-12-08T04:00:21.709Z,100064.06
2022-12-08T04:02:50.378Z,100058.09
2022-12-08T04:05:18.622Z,100052.16
2022-12-08T04:07:47.078Z,100048.81
2022-12-08T04:10:15.169Z,100049.31
2022-12-08T04:12:44.883Z,100042.38
2022-12-08T04:15:12.893Z,100041.88
2022-12-08T04:17:40.904Z,100051.34
2022-12-08T04:20:09.900Z,100031.69
2022-12-08T04:22:38.193Z,100027.72
2022-12-08T04:25:07.854Z,100030.25
2022-12-08T04:27:37.464Z,100030.69
2022-12-08T04:30:11.323Z,100026.91
2022-12-08T04:32:44.231Z,100024.25
2022-12-08T04:35:15.892Z,100030.22
2022-12-08T04:37:44.960Z,100025.78
2022-12-08T04:40:15.666Z,100025.28
2022-12-08T04:42:48.724Z,100031.53
2022-12-08T04:45:18.697Z,100023.50
2022-12-08T04:47:47.451Z,100032.53
2022-12-08T04:50:17.049Z,100018.59
2022-12-08T04:52:45.526Z,100024.09
2022-12-08T04:55:21.613Z,100023.06
2022-12-08T04:57:50.797Z,100019.88
2022-12-08T05:00:20.902Z,100023.56
2022-12-08T05:02:50.203Z,100019.13
2022-12-08T05:05:18.594Z,100014.19
2022-12-08T05:07:47.807Z,100011.69
2022-12-08T05:10:16.413Z,100018.16
2022-12-08T05:12:46.009Z,100021.91
2022-12-08T05:15:14.850Z,100025.38
2022-12-08T05:17:44.323Z,100027.81
2022-12-08T05:20:13.825Z,100022.59
2022-12-08T05:22:42.342Z,100021.84
2022-12-08T05:25:11.224Z,100018.63
2022-12-08T05:27:40.314Z,100023.81
2022-12-08T05:30:09.410Z,100019.31
2022-12-08T05:32:38.035Z,100019.13
2022-12-08T05:35:09.506Z,100010.63
2022-12-08T05:37:38.932Z,100009.94
2022-12-08T05:40:09.089Z,100008.47
2022-12-08T05:42:39.840Z,100006.44
2022-12-08T05:45:10.180Z,100002.72
2022-12-08T05:47:38.708Z,99996.75
2022-12-08T05:50:10.085Z,100003.97
2022-12-08T05:52:38.542Z,100001.50
2022-12-08T05:55:08.026Z,100010.44
2022-12-08T05:57:36.755Z,100005.94
2022-12-08T06:00:08.332Z,100002.22
2022-12-08T06:02:47.885Z,100002.03
2022-12-08T06:05:18.152Z,100009.47
2022-12-08T06:07:46.396Z,100009.44
2022-12-08T06:10:17.113Z,100007.94
2022-12-08T06:12:45.333Z,100008.47
2022-12-08T06:15:13.647Z,100011.69
2022-12-08T06:17:44.124Z,100013.22
2022-12-08T06:20:14.574Z,100010.22
2022-12-08T06:22:44.756Z,100020.91
2022-12-08T06:25:13.029Z,100013.50
2022-12-08T06:27:42.940Z,100012.72
2022-12-08T06:30:11.620Z,100015.44
2022-12-08T06:32:40.381Z,100005.53
2022-12-08T06:35:10.864Z,100013.75
2022-12-08T06:37:39.220Z,100011.00
2022-12-08T06:40:11.047Z,100014.94
2022-12-08T06:42:44.738Z,100014.44
2022-12-08T06:45:13.983Z,100014.94
2022-12-08T06:47:42.737Z,100013.16
2022-12-08T06:50:12.818Z,100015.16
2022-12-08T06:52:51.717Z,100013.16
2022-12-08T06:55:50.817Z,100012.97
2022-12-08T06:58:11.800Z,100005.50
2022-12-08T07:00:40.831Z,100009.94
2022-12-08T07:03:10.359Z,100007.44
2022-12-08T07:05:39.069Z,100000.69
2022-12-08T07:08:09.903Z,100010.69
2022-12-08T07:10:41.931Z,100007.69
2022-12-08T07:13:10.149Z,100000.91
2022-12-08T07:15:38.337Z,100012.38
2022-12-08T07:18:06.575Z,100006.16
2022-12-08T07:20:35.122Z,100009.91
2022-12-08T07:23:03.638Z,100008.63
2022-12-08T07:25:33.430Z,100012.34
2022-12-08T07:28:09.618Z,100014.38
2022-12-08T07:30:38.418Z,100009.88
2022-12-08T07:33:08.356Z,100005.94
2022-12-08T07:35:36.697Z,100003.94
2022-12-08T07:38:05.453Z,100010.66
2022-12-08T07:40:33.732Z,100006.31
2022-12-08T07:43:03.616Z,100005.38
2022-12-08T07:45:32.095Z,100005.16
2022-12-08T07:48:00.536Z,100003.66
2022-12-08T07:50:29.150Z,100004.38
2022-12-08T07:52:57.352Z,100008.31
2022-12-08T07:55:26.399Z,100002.31
2022-12-08T07:57:54.546Z,100007.06
2022-12-08T08:00:24.679Z,100004.06
2022-12-08T08:02:53.282Z,100001.81
2022-12-08T08:05:21.790Z,100000.00
2022-12-08T08:07:50.196Z,100000.16
2022-12-08T08:10:19.068Z,99999.88
2022-12-08T08:12:47.684Z,100005.13
2022-12-08T08:15:17.399Z,100002.63
2022-12-08T08:17:50.045Z,100002.13
2022-12-08T08:20:19.064Z,99998.75
2022-12-08T08:22:48.271Z,100006.97
2022-12-08T08:25:19.909Z,99992.59
2022-12-08T08:27:48.389Z,100001.22
2022-12-08T08:30:20.657Z,100003.44
2022-12-08T08:32:52.325Z,100004.97
2022-12-08T08:35:22.099Z,100009.41
2022-12-08T08:37:50.360Z,100013.59
2022-12-08T08:40:18.911Z,100013.03
2022-12-08T08:42:47.818Z,100007.00
2022-12-08T08:45:16.333Z,100007.16
2022-12-08T08:47:47.438Z,100003.13
2022-12-08T08:50:17.558Z,100009.69
2022-12-08T08:52:45.892Z,100005.56
2022-12-08T08:55:14.407Z,100010.97
2022-12-08T08:57:42.899Z,100008.69
2022-12-08T09:00:13.093Z,100010.31
2022-12-08T09:02:41.696Z,100005.41
2022-12-08T09:05:10.602Z,100000.16
2022-12-08T09:07:41.425Z,100006.31
2022-12-08T09:10:11.283Z,100012.72
2022-12-08T09:12:39.692Z,100006.03
2022-12-08T09:15:11.217Z,100006.69
2022-12-08T09:17:39.424Z,100003.03
2022-12-08T09:20:09.886Z,99989.84
2022-12-08T09:22:38.453Z,99995.69
2022-12-08T09:25:10.608Z,99996.88
2022-12-08T09:27:38.754Z,99998.91
2022-12-08T09:30:08.797Z,100003.34
2022-12-08T09:32:39.475Z,99992.31
2022-12-08T09:35:10.217Z,99994.69
2022-12-08T09:37:38.751Z,99990.75
2022-12-08T09:40:12.814Z,99993.44
2022-12-08T09:42:48.994Z,99988.16
2022-12-08T09:45:19.273Z,99991.34
2022-12-08T09:47:59.051Z,99986.97
2022-12-08T09:50:33.772Z,99980.91
2022-12-08T09:53:10.584Z,99967.56
2022-12-08T09:55:46.159Z,99963.78
2022-12-08T09:58:22.809Z,99966.59
2022-12-08T10:00:51.208Z,99959.69
2022-12-08T10:03:20.615Z,99958.56
2022-12-08T10:05:58.646Z,99948.03
2022-12-08T10:08:33.042Z,99953.84
2022-12-08T10:11:11.340Z,99960.00
2022-12-08T10:13:47.974Z,99947.47
2022-12-08T10:16:29.737Z,99945.09
2022-12-08T10:19:09.681Z,99939.69
2022-12-08T10:21:41.654Z,99947.00
2022-12-08T10:24:17.147Z,99946.38
2022-12-08T10:26:48.094Z,99949.44
2022-12-08T10:29:17.382Z,99942.66
2022-12-08T10:31:46.284Z,99939.81
2022-12-08T10:34:19.984Z,99935.91
2022-12-08T10:36:51.756Z,99924.81
2022-12-08T10:39:37.208Z,99930.22
2022-12-08T10:42:19.097Z,99924.72
2022-12-08T10:44:55.515Z,99926.00
2022-12-08T10:47:27.433Z,99916.59
2022-12-08T10:50:22.510Z,99918.19
2022-12-08T10:52:56.773Z,99920.09
2022-12-08T10:55:25.065Z,99910.91
2022-12-08T10:57:56.084Z,99900.88
2022-12-08T11:00:26.329Z,99906.00
2022-12-08T11:03:01.813Z,99907.41
2022-12-08T11:05:35.405Z,99910.00
2022-12-08T11:08:06.394Z,99909.09
2022-12-08T11:10:38.028Z,99903.13
2022-12-08T11:13:18.165Z,99905.00
2022-12-08T11:15:48.948Z,99893.94
2022-12-08T11:18:24.525Z,99889.22
2022-12-08T11:21:03.116Z,99881.28
2022-12-08T11:23:31.811Z,99885.81
2022-12-08T11:26:07.253Z,99875.47
2022-12-08T11:28:37.489Z,99876.38
2022-12-08T11:31:13.564Z,99868.59
2022-12-08T11:33:44.478Z,99873.88
2022-12-08T11:36:16.214Z,99867.22
2022-12-08T11:38:48.433Z,99864.38
2022-12-08T11:41:19.933Z,99863.13
2022-12-08T11:43:57.400Z,99850.28
2022-12-08T11:46:33.823Z,99856.44
2022-12-08T11:49:06.612Z,99850.28
2022-12-08T11:51:38.394Z,99854.81
2022-12-08T11:54:17.647Z,99851.91
2022-12-08T11:56:52.054Z,99843.22
2022-12-08T11:59:28.944Z,99835.03
2022-12-08T12:01:59.374Z,99832.47
2022-12-08T12:04:33.709Z,99832.22
2022-12-08T12:07:31.354Z,99828.19
2022-12-08T12:10:21.011Z,99827.84
2022-12-08T12:13:02.149Z,99824.63
2022-12-08T12:16:09.371Z,99822.53
2022-12-08T12:18:46.341Z,99812.34
2022-12-08T12:21:20.527Z,99819.34
2022-12-08T12:23:54.705Z,99817.00
2022-12-08T12:26:27.710Z,99815.72
2022-12-08T12:29:02.012Z,99819.59
2022-12-08T12:31:34.936Z,99817.31
2022-12-08T12:34:13.223Z,99813.03
2022-12-08T12:36:53.391Z,99813.03
2022-12-08T12:39:26.610Z,99817.19
2022-12-08T12:41:56.863Z,99812.50
2022-12-08T12:44:42.985Z,99807.88
2022-12-08T12:47:16.242Z,99807.84
2022-12-08T12:50:08.244Z,99800.81
2022-12-08T12:52:47.834Z,99807.38
2022-12-08T12:55:31.630Z,99800.91
2022-12-08T12:58:03.169Z,99798.41
2022-12-08T13:00:31.858Z,99801.09
2022-12-08T13:03:00.526Z,99803.31
2022-12-08T13:05:32.772Z,99800.03
2022-12-08T13:08:04.513Z,99804.63
2022-12-08T13:10:35.790Z,99805.47
2022-12-08T13:13:18.964Z,99791.72
2022-12-08T13:15:53.383Z,99795.78
2022-12-08T13:18:26.144Z,99799.66
2022-12-08T13:21:04.773Z,99790.41
2022-12-08T13:23:48.037Z,99786.25
2022-12-08T13:26:23.568Z,99790.28
2022-12-08T13:29:19.854Z,99778.34
2022-12-08T13:31:52.145Z,99781.31
2022-12-08T13:34:24.431Z,99779.50
2022-12-08T13:37:20.383Z,99774.81
2022-12-08T13:40:10.429Z,99778.63
2022-12-08T13:42:49.124Z,99775.03
2022-12-08T13:45:52.922Z,99774.38
2022-12-08T13:48:44.641Z,99772.13
2022-12-08T13:55:00.706Z,99772.50
2022-12-08T13:57:08.493Z,99766.19
2022-12-08T13:59:48.127Z,99781.66
2022-12-08T14:02:26.811Z,99769.38
2022-12-08T14:07:46.162Z,99768.66
2022-12-08T14:10:21.237Z,99775.38
2022-12-08T14:12:59.387Z,99772.81
2022-12-08T14:15:34.040Z,99768.81
2022-12-08T14:18:22.478Z,99770.69
2022-12-08T14:21:20.367Z,99768.06
2022-12-08T14:23:49.461Z,99773.72
2022-12-08T14:26:21.870Z,99781.75
2022-12-08T14:28:51.426Z,99773.50
2022-12-08T14:31:20.120Z,99787.03
2022-12-08T14:33:54.788Z,99781.22
2022-12-08T14:36:25.928Z,99778.38
2022-12-08T14:38:57.253Z,99777.09
2022-12-08T14:41:34.373Z,99780.78
2022-12-08T14:44:03.169Z,99782.06
2022-12-08T14:46:32.972Z,99776.91
2022-12-08T14:49:01.849Z,99783.66
2022-12-08T14:51:32.691Z,99776.47
2022-12-08T14:54:03.951Z,99774.56
2022-12-08T14:56:39.261Z,99782.34
2022-12-08T14:59:13.869Z,99779.19
2022-12-08T15:01:43.771Z,99781.50
2022-12-08T15:04:21.253Z,99787.81
2022-12-08T15:06:54.440Z,99787.78
2022-12-08T15:09:32.166Z,99786.94
2022-12-08T15:12:07.168Z,99785.53
2022-12-08T15:14:37.431Z,99782.97
2022-12-08T15:17:31.868Z,99782.63
2022-12-08T15:20:02.117Z,99780.25
2022-12-08T15:22:36.849Z,99780.66
2022-12-08T15:25:07.460Z,99787.16
2022-12-08T15:27:49.569Z,99774.81
2022-12-08T15:30:20.566Z,99781.72
2022-12-08T15:32:54.834Z,99786.72
2022-12-08T15:35:23.813Z,99778.00
2022-12-08T15:37:52.075Z,99783.25
2022-12-08T15:40:22.979Z,99778.38
2022-12-08T15:43:00.036Z,99775.63
2022-12-08T15:45:33.032Z,99774.22
2022-12-08T15:48:01.994Z,99778.59
2022-12-08T15:50:30.310Z,99776.69
2022-12-08T15:52:58.459Z,99781.63
2022-12-08T15:55:26.736Z,99784.88
2022-12-08T16:00:54.228Z,99790.78
2022-12-08T16:09:13.200Z,99788.97
2022-12-08T16:12:09.886Z,99787.91
2022-12-08T16:17:31.768Z,99786.16
2022-12-08T16:20:02.712Z,99778.88
2022-12-08T16:25:23.349Z,99779.53
2022-12-08T16:28:17.313Z,99784.81
2022-12-08T16:30:44.042Z,99765.84
2022-12-08T16:33:16.166Z,99767.34
2022-12-08T16:35:45.567Z,99770.59
2022-12-08T16:38:16.701Z,99772.59
2022-12-08T16:41:04.117Z,99772.00
2022-12-08T16:43:36.856Z,99765.84
2022-12-08T16:46:06.593Z,99782.09
2022-12-08T16:48:34.832Z,99766.16
2022-12-08T16:51:04.854Z,99762.16
2022-12-08T16:53:33.205Z,99762.69
2022-12-08T16:56:02.810Z,99756.97
2022-12-08T16:58:31.462Z,99758.22
2022-12-08T17:00:59.714Z,99756.66
2022-12-08T17:03:31.267Z,99756.97
2022-12-08T17:05:59.446Z,99772.69
2022-12-08T17:08:29.475Z,99769.72
2022-12-08T17:11:08.382Z,99756.97
2022-12-08T17:13:38.189Z,99751.50
2022-12-08T17:16:09.535Z,99758.03
2022-12-08T17:18:40.787Z,99753.28
2022-12-08T17:21:13.008Z,99765.28
2022-12-08T17:23:42.187Z,99753.94
2022-12-08T17:26:11.304Z,99755.94
2022-12-08T17:28:59.987Z,99756.97
2022-12-08T17:31:31.912Z,99758.53
2022-12-08T17:34:02.986Z,99748.53
2022-12-08T17:36:31.274Z,99750.31
2022-12-08T17:39:01.412Z,99749.34
2022-12-08T17:41:30.031Z,99739.13
2022-12-08T17:43:58.377Z,99751.78
2022-12-08T17:46:26.706Z,99749.88
2022-12-08T17:48:55.028Z,99746.63
2022-12-08T17:51:25.326Z,99755.16
2022-12-08T17:53:54.322Z,99755.88
2022-12-08T17:56:23.136Z,99751.44
2022-12-08T17:58:54.777Z,99761.13
2022-12-08T18:01:24.082Z,99763.88
2022-12-08T18:03:53.075Z,99763.63
2022-12-08T18:06:24.651Z,99750.47
2022-12-08T18:08:59.167Z,99755.44
2022-12-08T18:11:29.099Z,99756.94
2022-12-08T18:14:09.401Z,99746.13
2022-12-08T18:16:39.297Z,99745.34
2022-12-08T18:19:08.840Z,99745.16
2022-12-08T18:21:37.684Z,99748.91
2022-12-08T18:24:08.572Z,99744.53
2022-12-08T18:26:37.479Z,99749.34
2022-12-08T18:29:05.948Z,99749.81
2022-12-08T18:31:34.265Z,99755.88
2022-12-08T18:34:03.146Z,99757.44
2022-12-08T18:36:31.372Z,99752.19
2022-12-08T18:38:59.721Z,99757.94
2022-12-08T18:41:29.884Z,99752.69
2022-12-08T18:43:58.992Z,99749.72
2022-12-08T18:46:27.602Z,99751.00
2022-12-08T18:48:55.859Z,99750.25
2022-12-08T18:51:25.226Z,99760.44
2022-12-08T18:53:53.754Z,99754.78
2022-12-08T18:56:24.590Z,99752.47
2022-12-08T18:58:58.436Z,99756.94
2022-12-08T19:01:30.361Z,99756.69
2022-12-08T19:04:29.910Z,99745.44
2022-12-08T19:06:48.139Z,99743.66
2022-12-08T19:09:16.689Z,99747.88
2022-12-08T19:11:45.796Z,99750.19
2022-12-08T19:14:15.590Z,99741.75
2022-12-08T19:16:46.086Z,99758.69
2022-12-08T19:19:15.222Z,99756.25
2022-12-08T19:21:46.474Z,99760.97
2022-12-08T19:24:15.396Z,99756.69
2022-12-08T19:26:45.668Z,99758.97
2022-12-08T19:29:15.289Z,99754.00
2022-12-08T19:31:45.013Z,99754.00
2022-12-08T19:34:15.162Z,99752.31
2022-12-08T19:36:45.114Z,99753.59
2022-12-08T19:39:34.035Z,99751.34
2022-12-08T19:42:20.365Z,99753.13
2022-12-08T19:44:55.714Z,99750.63
2022-12-08T19:47:25.541Z,99755.38
2022-12-08T19:50:15.587Z,99754.91
2022-12-08T19:52:44.829Z,99748.16
2022-12-08T19:55:14.124Z,99744.91
2022-12-08T19:57:42.596Z,99743.97
2022-12-08T20:00:14.111Z,99741.72
2022-12-08T20:02:42.918Z,99742.03
2022-12-08T20:05:13.033Z,99744.31
2022-12-08T20:07:41.876Z,99734.88
2022-12-08T20:10:16.398Z,99733.22
2022-12-08T20:12:45.751Z,99732.09
2022-12-08T20:15:15.774Z,99724.25
2022-12-08T20:17:44.500Z,99731.34
2022-12-08T20:20:15.380Z,99740.34
2022-12-08T20:22:46.547Z,99733.69
2022-12-08T20:25:15.498Z,99729.25
2022-12-08T20:27:44.010Z,99739.44
2022-12-08T20:30:16.946Z,99731.06
2022-12-08T20:32:47.222Z,99737.63
2022-12-08T20:35:15.787Z,99733.25
2022-12-08T20:37:44.233Z,99736.06
2022-12-08T20:40:14.280Z,99733.44
2022-12-08T20:42:42.940Z,99728.53
2022-12-08T20:45:11.379Z,99732.63
2022-12-08T20:47:40.219Z,99737.38
2022-12-08T20:50:11.282Z,99733.47
2022-12-08T20:52:40.980Z,99734.03
2022-12-08T20:55:10.582Z,99737.81
2022-12-08T20:57:38.925Z,99735.34
2022-12-08T21:00:08.806Z,99742.06
2022-12-08T21:02:43.217Z,99743.59
2022-12-08T21:05:17.870Z,99741.13
2022-12-08T21:07:46.281Z,99737.41
2022-12-08T21:10:17.747Z,99734.47
2022-12-08T21:12:46.641Z,99734.22
2022-12-08T21:15:15.244Z,99735.00
2022-12-08T21:17:44.024Z,99738.22
2022-12-08T21:20:12.925Z,99737.00
2022-12-08T21:22:42.706Z,99731.81
2022-12-08T21:25:12.275Z,99728.84
2022-12-08T21:27:40.645Z,99737.28
2022-12-08T21:30:11.336Z,99737.72
2022-12-08T21:32:41.735Z,99733.28
2022-12-08T21:35:11.133Z,99735.50
2022-12-08T21:37:40.068Z,99735.97
2022-12-08T21:40:11.872Z,99737.69
2022-12-08T21:42:46.518Z,99734.66
2022-12-08T21:45:18.467Z,99736.41
2022-12-08T21:47:48.413Z,99737.38
2022-12-08T21:50:18.462Z,99740.13
2022-12-08T21:52:50.347Z,99738.63
2022-12-08T21:55:20.456Z,99735.69
2022-12-08T21:57:49.252Z,99742.59
2022-12-08T22:00:19.646Z,99734.19
2022-12-08T22:02:47.986Z,99739.88
2022-12-08T22:05:16.744Z,99737.16
2022-12-08T22:07:45.288Z,99737.16
2022-12-08T22:10:14.993Z,99739.13
2022-12-08T22:12:45.656Z,99740.63
2022-12-08T22:15:16.089Z,99733.63
2022-12-08T22:17:45.242Z,99742.06
2022-12-08T22:20:15.605Z,99740.34
2022-12-08T22:22:45.552Z,99732.16
2022-12-08T22:25:13.773Z,99743.09
2022-12-08T22:27:43.704Z,99736.88
2022-12-08T22:30:13.335Z,99722.72
2022-12-08T22:32:41.974Z,99728.91
2022-12-08T22:35:12.063Z,99732.63
2022-12-08T22:37:42.253Z,99728.19
2022-12-08T22:40:13.297Z,99730.66
2022-12-08T22:42:41.660Z,99731.16
2022-12-08T22:45:12.205Z,99728.31
2022-12-08T22:47:40.794Z,99727.63
2022-12-08T22:50:09.595Z,99728.38
2022-12-08T22:52:38.268Z,99725.41
2022-12-08T22:55:07.681Z,99723.88
2022-12-08T22:57:36.212Z,99723.88
2022-12-08T23:00:07.033Z,99727.88
2022-12-08T23:02:38.271Z,99716.63
2022-12-08T23:05:07.810Z,99712.19
2022-12-08T23:07:36.682Z,99707.97
2022-12-08T23:10:06.604Z,99716.16
2022-12-08T23:12:35.530Z,99708.47
2022-12-08T23:15:05.052Z,99703.53
2022-12-08T23:17:33.257Z,99700.81
2022-12-08T23:20:03.188Z,99708.75
2022-12-08T23:22:31.505Z,99705.78
2022-12-08T23:25:00.074Z,99704.53
2022-12-08T23:27:28.597Z,99697.38
2022-12-08T23:29:57.087Z,99686.44
2022-12-08T23:32:26.394Z,99692.94
2022-12-08T23:34:55.342Z,99697.66
2022-12-08T23:37:25.035Z,99685.22
2022-12-08T23:39:53.658Z,99688.69
2022-12-08T23:42:22.526Z,99676.53
2022-12-08T23:44:51.348Z,99683.72
2022-12-08T23:47:22.102Z,99678.53
2022-12-08T23:49:52.033Z,99675.03
2022-12-08T23:52:20.240Z,99675.34
2022-12-08T23:54:52.080Z,99670.38
2022-12-08T23:57:23.117Z,99668.66
2022-12-08T23:59:51.874Z,99663.94
